createdAt,value
2023-05-04T05:03:25.333Z,76.88
2023-05-04T05:04:25.379Z,74.79
2023-05-04T05:05:25.269Z,74.65
2023-05-04T05:06:26.249Z,74.75
2023-05-04T05:07:25.282Z,74.53
2023-05-04T05:08:25.241Z,74.20
2023-05-04T05:09:25.225Z,74.25
2023-05-04T05:10:25.260Z,74.28
2023-05-04T05:11:25.961Z,74.19
2023-05-04T05:12:25.911Z,74.03
2023-05-04T05:13:26.916Z,73.96
2023-05-04T05:14:26.556Z,73.91
2023-05-04T05:15:27.715Z,73.79
2023-05-04T05:16:27.349Z,73.87
2023-05-04T05:17:27.017Z,73.91
2023-05-04T05:18:29.493Z,73.75
2023-05-04T05:19:26.743Z,73.85
2023-05-04T05:20:26.658Z,73.64
2023-05-04T05:21:27.533Z,73.52
2023-05-04T05:22:27.469Z,73.23
2023-05-04T05:23:26.961Z,73.33
2023-05-04T05:24:27.839Z,73.38
2023-05-04T05:25:26.709Z,73.28
2023-05-04T05:26:25.732Z,73.20
2023-05-04T05:27:26.961Z,72.83
2023-05-04T05:28:26.828Z,73.08
2023-05-04T05:29:28.394Z,72.99
2023-05-04T05:30:25.948Z,72.89
2023-05-04T05:31:27.026Z,72.64
2023-05-04T05:32:27.554Z,72.51
2023-05-04T05:33:26.854Z,72.28
2023-05-04T05:34:26.425Z,72.55
2023-05-04T05:35:27.026Z,72.83
2023-05-04T05:36:27.059Z,72.95
2023-05-04T05:37:26.178Z,73.29
2023-05-04T05:38:26.340Z,73.09
2023-05-04T05:39:25.906Z,73.14
2023-05-04T05:40:25.807Z,73.22
2023-05-04T05:41:25.920Z,73.29
2023-05-04T05:43:45.117Z,73.62
2023-05-04T05:44:45.028Z,73.43
2023-05-04T05:45:44.860Z,73.17
2023-05-04T05:46:45.984Z,73.49
2023-05-04T05:47:46.020Z,73.32
2023-05-04T05:48:45.882Z,73.18
2023-05-04T05:49:46.432Z,73.18
2023-05-04T05:50:44.862Z,72.67
2023-05-04T05:51:45.853Z,72.49
2023-05-04T05:52:44.835Z,72.25
2023-05-04T05:53:45.863Z,72.29
2023-05-04T05:54:44.796Z,72.65
2023-05-04T05:55:45.782Z,72.88
2023-05-04T05:56:44.801Z,73.11
2023-05-04T05:57:44.779Z,73.19
2023-05-04T05:58:45.813Z,72.88
2023-05-04T05:59:44.807Z,73.24
2023-05-04T06:00:45.771Z,73.46
2023-05-04T06:01:45.934Z,73.31
2023-05-04T06:02:44.863Z,73.19
2023-05-04T06:03:44.953Z,72.92
2023-05-04T06:04:44.787Z,72.65
2023-05-04T06:05:45.773Z,72.46
2023-05-04T06:06:46.148Z,72.21
2023-05-04T06:07:46.680Z,71.89
2023-05-04T06:08:46.007Z,71.94
2023-05-04T06:09:44.870Z,71.78
2023-05-04T06:10:44.921Z,71.66
2023-05-04T06:11:45.080Z,71.91
2023-05-04T06:12:44.977Z,71.90
2023-05-04T06:13:46.022Z,71.80
2023-05-04T06:14:45.059Z,70.99
2023-05-04T06:15:45.053Z,70.88
2023-05-04T06:16:46.241Z,70.60
2023-05-04T06:17:46.566Z,70.63
2023-05-04T06:18:46.157Z,70.53
2023-05-04T06:19:47.579Z,70.20
2023-05-04T06:20:46.709Z,70.33
2023-05-04T06:23:04.343Z,70.90
2023-05-04T06:29:21.222Z,70.72
2023-05-04T06:30:21.248Z,70.12
2023-05-04T06:31:21.336Z,69.81
2023-05-04T06:32:22.275Z,69.34
2023-05-04T06:33:22.213Z,69.67
2023-05-04T06:35:41.338Z,70.83
2023-05-04T06:38:01.124Z,70.79
2023-05-04T06:40:35.727Z,71.84
2023-05-04T06:41:35.728Z,70.71
2023-05-04T06:42:36.666Z,71.10
2023-05-04T06:43:37.058Z,70.87
2023-05-04T06:44:35.945Z,70.77
2023-05-04T06:45:39.650Z,70.37
2023-05-04T06:46:48.758Z,70.28
2023-05-04T06:48:55.864Z,71.26
2023-05-04T06:49:57.264Z,70.06
2023-05-04T06:57:31.454Z,72.15
2023-05-04T07:00:56.674Z,72.55
2023-05-04T07:03:34.926Z,73.10
2023-05-04T07:05:49.687Z,71.60
2023-05-04T07:06:50.721Z,70.56
2023-05-04T07:07:51.446Z,70.16
2023-05-04T07:10:10.195Z,69.97
2023-05-04T07:12:47.408Z,70.46
2023-05-04T07:16:28.818Z,70.03
2023-05-04T07:18:45.589Z,69.19
2023-05-04T07:19:46.003Z,68.52
2023-05-04T07:20:47.185Z,67.92
2023-05-04T07:21:46.205Z,67.67
2023-05-04T07:24:05.135Z,67.80
2023-05-04T07:26:27.420Z,67.20
2023-05-04T07:27:24.599Z,67.32
2023-05-04T07:28:25.358Z,67.92
2023-05-04T07:29:29.573Z,67.78
2023-05-04T07:30:24.916Z,67.54
2023-05-04T07:31:31.012Z,67.62
2023-05-04T07:33:46.095Z,67.92
2023-05-04T07:34:48.789Z,67.25
2023-05-04T07:35:46.031Z,66.90
2023-05-04T07:36:44.994Z,66.76
2023-05-04T07:37:45.473Z,67.06
2023-05-04T07:47:51.867Z,68.85
2023-05-04T07:51:11.763Z,69.45
2023-05-04T07:52:02.969Z,67.46
2023-05-04T07:53:03.780Z,66.55
2023-05-04T07:54:02.751Z,66.71
2023-05-04T07:55:02.767Z,66.51
2023-05-04T07:56:01.981Z,66.89
2023-05-04T07:57:02.746Z,66.59
2023-05-04T07:58:01.786Z,65.73
2023-05-04T07:59:02.698Z,65.61
2023-05-04T08:00:03.031Z,65.40
2023-05-04T08:01:02.735Z,65.58
2023-05-04T08:02:01.787Z,65.67
2023-05-04T08:03:02.911Z,65.52
2023-05-04T08:05:20.784Z,65.22
2023-05-04T08:07:41.377Z,64.57
2023-05-04T08:08:41.347Z,64.24
2023-05-04T08:09:40.358Z,63.57
2023-05-04T08:10:41.317Z,63.94
2023-05-04T08:11:41.382Z,64.00
2023-05-04T08:12:41.378Z,63.81
2023-05-04T08:13:41.297Z,63.58
2023-05-04T08:15:59.350Z,63.35
2023-05-04T08:18:22.685Z,63.17
2023-05-04T08:19:19.535Z,62.91
2023-05-04T08:20:18.833Z,62.95
2023-05-04T08:21:18.508Z,62.67
2023-05-04T08:22:19.526Z,62.37
2023-05-04T08:23:19.487Z,62.31
2023-05-04T08:25:38.464Z,62.99
2023-05-04T08:26:47.308Z,62.91
2023-05-04T08:27:39.014Z,62.83
2023-05-04T08:28:38.990Z,62.50
2023-05-04T08:29:38.075Z,59.72
2023-05-04T08:30:39.025Z,59.75
2023-05-04T08:34:16.813Z,59.90
2023-05-04T08:35:17.701Z,59.93
2023-05-04T08:36:17.937Z,60.08
2023-05-04T08:37:16.590Z,59.77
2023-05-04T08:38:16.603Z,60.01
2023-05-04T08:39:17.601Z,59.54
2023-05-04T08:40:17.576Z,59.69
2023-05-04T08:41:16.565Z,59.57
2023-05-04T08:42:17.522Z,59.57
2023-05-04T08:44:36.775Z,60.19
2023-05-04T08:46:57.250Z,59.03
2023-05-04T08:48:06.350Z,58.58
2023-05-04T08:50:39.852Z,60.06
2023-05-04T08:51:52.077Z,59.41
2023-05-04T08:52:39.589Z,59.71
2023-05-04T08:53:39.565Z,59.71
2023-05-04T08:54:39.690Z,59.54
2023-05-04T08:55:39.565Z,59.27
2023-05-04T08:56:39.895Z,58.73
2023-05-04T08:57:39.548Z,58.57
2023-05-04T08:58:38.555Z,59.02
2023-05-04T08:59:39.522Z,58.47
2023-05-04T09:00:39.601Z,58.36
2023-05-04T09:01:39.543Z,58.12
2023-05-04T09:02:38.512Z,57.60
2023-05-04T09:03:39.548Z,57.35
2023-05-04T09:04:39.494Z,58.46
2023-05-04T09:05:38.500Z,58.62
2023-05-04T09:06:39.540Z,58.59
2023-05-04T09:07:39.450Z,57.84
2023-05-04T09:08:38.465Z,57.45
2023-05-04T09:09:38.540Z,57.22
2023-05-04T09:10:39.571Z,57.17
2023-05-04T09:11:38.450Z,56.59
2023-05-04T09:12:39.485Z,56.67
2023-05-04T09:13:39.483Z,56.57
2023-05-04T09:14:40.377Z,56.86
2023-05-04T09:15:39.434Z,56.49
2023-05-04T09:16:42.978Z,56.37
2023-05-04T09:17:50.972Z,55.96
2023-05-04T09:18:39.428Z,56.18
2023-05-04T09:20:57.704Z,56.00
2023-05-04T09:21:58.564Z,55.80
2023-05-04T09:22:58.469Z,56.24
2023-05-04T09:23:58.441Z,55.89
2023-05-04T09:24:58.386Z,55.57
2023-05-04T09:25:58.588Z,55.89
2023-05-04T09:26:57.482Z,55.74
2023-05-04T09:27:58.610Z,55.33
2023-05-04T09:28:57.374Z,54.88
2023-05-04T09:29:58.385Z,54.67
2023-05-04T09:30:57.349Z,54.57
2023-05-04T09:31:58.341Z,53.92
2023-05-04T09:32:57.464Z,53.72
2023-05-04T09:33:58.320Z,53.58
2023-05-04T09:34:57.389Z,53.65
2023-05-04T09:35:58.366Z,53.59
2023-05-04T09:36:58.323Z,53.85
2023-05-04T09:37:58.355Z,53.94
2023-05-04T09:38:58.281Z,53.85
2023-05-04T09:39:57.334Z,53.65
2023-05-04T09:40:57.355Z,53.82
2023-05-04T09:41:58.375Z,53.66
2023-05-04T09:42:57.357Z,53.78
2023-05-04T09:43:58.373Z,53.47
2023-05-04T09:44:58.407Z,53.34
2023-05-04T09:45:57.555Z,53.36
2023-05-04T09:46:58.526Z,53.16
2023-05-04T09:47:58.569Z,52.95
2023-05-04T09:48:58.508Z,52.89
2023-05-04T09:49:58.547Z,53.06
2023-05-04T09:50:58.542Z,53.67
2023-05-04T09:51:59.024Z,53.56
2023-05-04T09:52:58.583Z,52.39
2023-05-04T09:53:57.758Z,52.52
2023-05-04T09:54:57.698Z,52.03
2023-05-04T09:55:58.638Z,52.31
2023-05-04T09:56:58.796Z,52.45
2023-05-04T09:57:58.824Z,52.75
2023-05-04T09:58:57.876Z,52.97
2023-05-04T09:59:57.932Z,52.83
2023-05-04T10:00:58.965Z,51.90
2023-05-04T10:02:00.416Z,51.85
2023-05-04T10:02:59.154Z,51.81
2023-05-04T10:03:59.064Z,51.32
2023-05-04T10:04:59.077Z,51.02
2023-05-04T10:05:59.221Z,50.67
2023-05-04T10:06:59.045Z,50.63
2023-05-04T10:07:59.008Z,50.58
2023-05-04T10:08:58.022Z,50.62
2023-05-04T10:09:57.999Z,50.43
2023-05-04T10:10:58.012Z,50.68
2023-05-04T10:12:00.586Z,50.87
2023-05-04T10:12:58.989Z,50.86
2023-05-04T10:13:58.938Z,51.05
2023-05-04T10:14:58.938Z,51.50
2023-05-04T10:15:59.001Z,51.60
2023-05-04T10:16:58.936Z,51.86
2023-05-04T10:17:58.946Z,51.06
2023-05-04T10:18:57.930Z,50.53
2023-05-04T10:19:58.900Z,50.38
2023-05-04T10:20:58.898Z,50.52
2023-05-04T10:21:57.922Z,50.39
2023-05-04T10:22:57.902Z,50.77
2023-05-04T10:23:57.892Z,52.40
2023-05-04T10:24:58.887Z,51.45
2023-05-04T10:25:58.873Z,49.47
2023-05-04T10:26:58.838Z,49.48
2023-05-04T10:27:57.853Z,49.63
2023-05-04T10:28:58.853Z,49.80
2023-05-04T10:29:57.837Z,50.10
2023-05-04T10:30:58.832Z,49.26
2023-05-04T10:31:58.941Z,48.86
2023-05-04T10:32:58.899Z,48.05
2023-05-04T10:33:58.815Z,47.62
2023-05-04T10:34:57.795Z,47.95
2023-05-04T10:35:58.782Z,47.85
2023-05-04T10:36:58.784Z,47.66
2023-05-04T10:37:58.859Z,47.12
2023-05-04T10:38:58.788Z,47.50
2023-05-04T10:39:58.778Z,46.97
2023-05-04T10:40:57.776Z,46.60
2023-05-04T10:41:58.768Z,45.55
2023-05-04T10:42:59.035Z,45.84
2023-05-04T10:43:58.740Z,45.80
2023-05-04T10:44:58.746Z,47.47
2023-05-04T10:45:57.775Z,47.61
2023-05-04T10:46:59.827Z,46.32
2023-05-04T10:47:58.075Z,45.05
2023-05-04T10:48:58.729Z,44.11
2023-05-04T10:49:57.701Z,43.81
2023-05-04T10:50:58.695Z,43.38
2023-05-04T10:51:58.686Z,43.42
2023-05-04T10:52:59.504Z,43.09
2023-05-04T10:53:59.265Z,43.37
2023-05-04T10:54:58.929Z,42.66
2023-05-04T10:55:58.802Z,43.27
2023-05-04T10:56:58.869Z,43.38
2023-05-04T10:57:58.864Z,43.00
2023-05-04T10:58:57.886Z,42.50
2023-05-04T10:59:58.950Z,42.14
2023-05-04T11:00:58.022Z,43.25
2023-05-04T11:01:58.965Z,42.77
2023-05-04T11:02:58.118Z,42.73
2023-05-04T11:03:59.057Z,42.84
2023-05-04T11:04:58.042Z,42.93
2023-05-04T11:05:59.082Z,42.11
2023-05-04T11:06:59.117Z,41.83
2023-05-04T11:07:59.935Z,42.30
2023-05-04T11:08:58.167Z,42.24
2023-05-04T11:09:58.189Z,41.52
2023-05-04T11:10:59.224Z,41.41
2023-05-04T11:11:59.296Z,41.57
2023-05-04T11:12:59.352Z,41.50
2023-05-04T11:13:59.481Z,41.41
2023-05-04T11:14:59.436Z,41.52
2023-05-04T11:15:59.543Z,42.98
2023-05-04T11:16:59.471Z,43.54
2023-05-04T11:17:59.556Z,43.69
2023-05-04T11:18:59.555Z,42.39
2023-05-04T11:19:59.547Z,42.19
2023-05-04T11:20:59.596Z,42.53
2023-05-04T11:21:58.722Z,42.44
2023-05-04T11:22:58.719Z,42.29
2023-05-04T11:23:59.732Z,41.41
2023-05-04T11:24:58.746Z,41.35
2023-05-04T11:25:58.795Z,41.47
2023-05-04T11:26:58.827Z,41.68
2023-05-04T11:27:59.856Z,42.29
2023-05-04T11:28:59.878Z,42.79
2023-05-04T11:29:58.969Z,42.81
2023-05-04T11:30:59.981Z,42.06
2023-05-04T11:31:59.033Z,40.96
2023-05-04T11:32:59.135Z,41.16
2023-05-04T11:33:59.081Z,41.00
2023-05-04T11:34:59.135Z,40.82
2023-05-04T11:35:59.105Z,41.27
2023-05-04T11:37:00.214Z,41.06
2023-05-04T11:37:59.583Z,41.00
2023-05-04T11:39:00.254Z,41.45
2023-05-04T11:39:59.212Z,41.11
2023-05-04T11:41:00.240Z,41.03
2023-05-04T11:41:59.254Z,40.75
2023-05-04T11:42:59.203Z,40.24
2023-05-04T11:44:00.260Z,40.24
2023-05-04T11:45:00.287Z,40.09
2023-05-04T11:45:59.362Z,40.04
2023-05-04T11:46:59.342Z,39.45
2023-05-04T11:47:59.506Z,39.97
2023-05-04T11:48:59.367Z,39.73
2023-05-04T11:50:00.485Z,40.04
2023-05-04T11:51:00.515Z,39.60
2023-05-04T11:52:00.570Z,39.34
2023-05-04T11:52:59.655Z,39.70
2023-05-04T11:53:59.593Z,40.16
2023-05-04T11:55:00.610Z,39.83
2023-05-04T11:56:00.039Z,39.96
2023-05-04T11:57:00.864Z,39.08
2023-05-04T11:57:59.729Z,39.24
2023-05-04T11:58:59.779Z,39.24
2023-05-04T12:00:00.708Z,39.25
2023-05-04T12:01:00.775Z,38.63
2023-05-04T12:02:00.806Z,38.42
2023-05-04T12:03:00.984Z,38.43
2023-05-04T12:03:59.891Z,38.18
2023-05-04T12:04:59.896Z,37.92
2023-05-04T12:05:59.974Z,37.73
2023-05-04T12:07:01.740Z,37.58
2023-05-04T12:08:01.038Z,37.80
2023-05-04T12:09:01.013Z,37.77
2023-05-04T12:10:00.094Z,37.36
2023-05-04T12:11:00.068Z,37.45
2023-05-04T12:12:00.147Z,37.26
2023-05-04T12:13:01.232Z,37.07
2023-05-04T12:14:00.180Z,36.50
2023-05-04T12:15:01.231Z,36.69
2023-05-04T12:16:00.274Z,36.44
2023-05-04T12:17:01.282Z,35.30
2023-05-04T12:18:02.500Z,34.70
2023-05-04T12:19:00.260Z,35.10
2023-05-04T12:20:00.288Z,35.94
2023-05-04T12:21:02.803Z,34.65
2023-05-04T12:22:01.300Z,34.09
2023-05-04T12:23:00.234Z,34.62
2023-05-04T12:24:01.210Z,34.35
2023-05-04T12:25:00.285Z,33.11
2023-05-04T12:26:00.225Z,33.12
2023-05-04T12:27:00.205Z,33.02
2023-05-04T12:28:00.173Z,33.35
2023-05-04T12:29:00.149Z,32.31
2023-05-04T12:30:00.211Z,32.90
2023-05-04T12:31:00.200Z,33.00
2023-05-04T12:32:00.256Z,32.47
2023-05-04T12:33:00.298Z,32.27
2023-05-04T12:34:00.297Z,31.68
2023-05-04T12:35:00.212Z,30.95
2023-05-04T12:36:00.188Z,31.29
2023-05-04T12:37:00.151Z,29.89
2023-05-04T12:38:01.183Z,30.10
2023-05-04T12:39:00.162Z,30.54
2023-05-04T12:40:01.196Z,30.86
2023-05-04T12:41:01.172Z,30.17
2023-05-04T12:42:01.076Z,30.05
2023-05-04T12:43:01.153Z,29.57
2023-05-04T12:44:00.081Z,28.91
2023-05-04T12:45:01.092Z,28.59
2023-05-04T12:46:01.156Z,29.60
2023-05-04T12:47:01.122Z,29.91
2023-05-04T12:48:00.236Z,28.99
2023-05-04T12:49:00.025Z,28.89
2023-05-04T12:50:00.041Z,29.00
2023-05-04T12:51:00.081Z,28.08
2023-05-04T12:52:00.080Z,28.46
2023-05-04T12:53:00.014Z,28.38
2023-05-04T12:54:00.050Z,29.38
2023-05-04T12:55:01.108Z,28.96
2023-05-04T12:56:00.204Z,29.76
2023-05-04T12:57:00.113Z,28.59
2023-05-04T12:58:01.161Z,28.47
2023-05-04T12:59:00.134Z,28.64
2023-05-04T13:00:01.232Z,28.51
2023-05-04T13:01:00.297Z,28.91
2023-05-04T13:02:00.249Z,29.62
2023-05-04T13:03:00.494Z,29.40
2023-05-04T13:04:01.429Z,28.47
2023-05-04T13:05:00.378Z,29.14
2023-05-04T13:06:00.529Z,28.92
2023-05-04T13:07:01.445Z,28.40
2023-05-04T13:08:00.509Z,28.68
2023-05-04T13:09:00.498Z,28.49
2023-05-04T13:10:00.509Z,27.34
2023-05-04T13:11:01.612Z,27.79
2023-05-04T13:12:00.619Z,28.36
2023-05-04T13:13:01.773Z,28.09
2023-05-04T13:14:00.757Z,28.22
2023-05-04T13:15:00.733Z,28.64
2023-05-04T13:16:00.866Z,28.05
2023-05-04T13:17:01.898Z,27.03
2023-05-04T13:18:00.883Z,27.25
2023-05-04T13:19:00.904Z,27.56
2023-05-04T13:20:00.935Z,26.32
2023-05-04T13:21:00.957Z,27.14
2023-05-04T13:22:01.104Z,27.42
2023-05-04T13:23:01.232Z,26.92
2023-05-04T13:24:01.098Z,26.92
2023-05-04T13:25:01.141Z,27.51
2023-05-04T13:26:02.173Z,27.16
2023-05-04T13:27:02.306Z,27.66
2023-05-04T13:28:01.217Z,28.30
2023-05-04T13:29:01.257Z,28.61
2023-05-04T13:30:01.339Z,29.12
2023-05-04T13:31:01.378Z,29.17
2023-05-04T13:32:02.508Z,29.05
2023-05-04T13:33:07.702Z,29.11
2023-05-04T13:34:02.372Z,28.25
2023-05-04T13:35:01.316Z,27.86
2023-05-04T13:36:01.329Z,28.51
2023-05-04T13:37:02.402Z,28.60
2023-05-04T13:38:02.372Z,28.75
2023-05-04T13:39:01.364Z,27.99
2023-05-04T13:40:02.345Z,28.18
2023-05-04T13:41:01.274Z,28.21
2023-05-04T13:42:01.360Z,28.72
2023-05-04T13:43:01.341Z,29.17
2023-05-04T13:44:01.315Z,29.58
2023-05-04T13:45:01.299Z,29.60
2023-05-04T13:46:02.280Z,29.04
2023-05-04T13:47:01.378Z,29.20
2023-05-04T13:48:01.274Z,28.91
2023-05-04T13:49:02.229Z,29.06
2023-05-04T13:50:02.255Z,28.71
2023-05-04T13:51:01.285Z,29.07
2023-05-04T13:52:01.265Z,28.36
2023-05-04T13:53:01.217Z,28.35
2023-05-04T13:54:02.693Z,28.40
2023-05-04T13:55:01.255Z,28.65
2023-05-04T13:56:02.249Z,28.33
2023-05-04T13:57:01.249Z,28.81
2023-05-04T13:58:01.244Z,28.35
2023-05-04T13:59:02.230Z,27.63
2023-05-04T14:00:06.661Z,27.74
2023-05-04T14:01:02.183Z,28.81
2023-05-04T14:02:01.240Z,27.07
2023-05-04T14:03:01.293Z,27.62
2023-05-04T14:04:02.206Z,27.86
2023-05-04T14:05:01.202Z,28.52
2023-05-04T14:06:01.156Z,28.27
2023-05-04T14:07:02.089Z,27.87
2023-05-04T14:08:02.097Z,27.35
2023-05-04T14:09:02.216Z,28.36
2023-05-04T14:10:01.124Z,26.95
2023-05-04T14:11:01.074Z,27.73
2023-05-04T14:12:01.109Z,28.13
2023-05-04T14:13:01.109Z,28.44
2023-05-04T14:14:02.199Z,28.51
2023-05-04T14:15:01.281Z,28.02
2023-05-04T14:16:01.327Z,27.17
2023-05-04T14:17:01.245Z,27.77
2023-05-04T14:18:01.416Z,28.55
2023-05-04T14:19:01.307Z,28.34
2023-05-04T14:20:01.376Z,27.67
2023-05-04T14:21:02.354Z,27.48
2023-05-04T14:22:02.390Z,27.11
2023-05-04T14:23:01.339Z,27.04
2023-05-04T14:24:01.513Z,27.86
2023-05-04T14:25:02.509Z,28.41
2023-05-04T14:26:01.545Z,28.58
2023-05-04T14:27:02.565Z,28.87
2023-05-04T14:28:01.575Z,27.57
2023-05-04T14:29:01.559Z,27.91
2023-05-04T14:30:02.668Z,28.09
2023-05-04T14:31:01.721Z,27.94
2023-05-04T14:32:01.717Z,28.43
2023-05-04T14:33:02.828Z,28.24
2023-05-04T14:34:01.818Z,28.47
2023-05-04T14:35:01.806Z,28.73
2023-05-04T14:36:01.814Z,28.13
2023-05-04T14:37:01.920Z,27.01
2023-05-04T14:38:02.822Z,27.10
2023-05-04T14:39:02.835Z,27.11
2023-05-04T14:40:01.906Z,26.41
2023-05-04T14:41:03.027Z,27.12
2023-05-04T14:42:02.945Z,27.43
2023-05-04T14:43:02.969Z,27.47
2023-05-04T14:44:02.076Z,25.46
2023-05-04T14:45:01.959Z,25.51
2023-05-04T14:46:02.113Z,26.64
2023-05-04T14:47:02.051Z,26.41
2023-05-04T14:48:02.053Z,26.62
2023-05-04T14:49:02.101Z,26.84
2023-05-04T14:50:02.243Z,26.40
2023-05-04T14:51:02.165Z,26.67
2023-05-04T14:52:03.204Z,27.40
2023-05-04T14:53:02.236Z,28.13
2023-05-04T14:54:03.279Z,27.37
2023-05-04T14:55:02.297Z,26.67
2023-05-04T14:56:03.270Z,26.94
2023-05-04T14:57:02.291Z,28.12
2023-05-04T14:58:02.240Z,28.24
2023-05-04T14:59:03.378Z,28.02
2023-05-04T15:00:02.362Z,27.40
2023-05-04T15:01:02.388Z,27.47
2023-05-04T15:02:03.355Z,27.42
2023-05-04T15:03:02.510Z,28.25
2023-05-04T15:04:02.386Z,28.96
2023-05-04T15:05:02.407Z,28.97
2023-05-04T15:06:03.509Z,28.16
2023-05-04T15:07:03.572Z,27.96
2023-05-04T15:08:02.490Z,28.29
2023-05-04T15:09:02.584Z,27.85
2023-05-04T15:10:02.650Z,27.51
2023-05-04T15:11:02.669Z,27.54
2023-05-04T15:12:03.733Z,27.93
2023-05-04T15:13:02.700Z,27.91
2023-05-04T15:14:02.773Z,27.77
2023-05-04T15:15:02.684Z,27.44
2023-05-04T15:16:03.761Z,27.19
2023-05-04T15:17:03.789Z,27.67
2023-05-04T15:18:03.797Z,27.97
2023-05-04T15:19:02.793Z,28.75
2023-05-04T15:20:02.775Z,29.10
2023-05-04T15:21:03.828Z,28.96
2023-05-04T15:22:02.833Z,28.89
2023-05-04T15:23:03.871Z,28.55
2023-05-04T15:24:03.949Z,28.71
2023-05-04T15:25:03.899Z,29.04
2023-05-04T15:26:02.958Z,29.23
2023-05-04T15:27:03.935Z,28.87
2023-05-04T15:28:02.944Z,28.71
2023-05-04T15:29:03.059Z,28.40
2023-05-04T15:30:03.355Z,28.77
